Time;durP1;ratioP1;P1;durP2;ratioP2;P2;SDS_P1;SDS_P2;PMS_P1;PMS_P2;Temp;Humidity;BMP_temperature;BMP_pressure;BME280_temperature;BME280_humidity;BME280_pressure;Samples;Min_cycle;Max_cycle;Signal;HPM_P1;HPM_P2
2023/05/22 00:01:36;;;;;;;8.47;4.17;;;;;;;17.23;64.54;101115.13;5128078;56;1140800;-78
2023/05/22 00:06:44;;;;;;;9.20;5.00;;;;;;;17.20;64.51;101111.41;5123965;56;1138839;-75
2023/05/22 00:11:49;;;;;;;9.83;4.83;;;;;;;17.17;64.74;101107.19;5134807;56;1138892;-76
2023/05/22 00:16:57;;;;;;;9.57;5.17;;;;;;;17.13;64.67;101107.62;5114855;56;1138978;-76
2023/05/22 00:22:02;;;;;;;11.40;5.07;;;;;;;17.05;65.04;101108.37;5114889;56;1139001;-75
2023/05/22 00:27:08;;;;;;;7.17;5.25;;;;;;;17.01;65.53;101111.47;5133241;56;1140947;-75
2023/05/22 00:32:13;;;;;;;7.63;5.80;;;;;;;16.99;65.84;101103.59;5031071;56;1138767;-73
2023/05/22 00:37:20;;;;;;;7.57;5.50;;;;;;;16.95;66.21;101097.38;5031059;56;1138732;-77
2023/05/22 00:42:26;;;;;;;8.80;5.63;;;;;;;16.79;66.04;101095.31;5050655;56;1138836;-76
2023/05/22 00:47:32;;;;;;;6.90;5.67;;;;;;;16.55;66.37;101091.73;5031360;56;1138853;-76
2023/05/22 00:52:42;;;;;;;12.70;7.00;;;;;;;16.40;67.11;101088.67;5030760;57;1138885;-77
2023/05/22 00:57:50;;;;;;;20.40;6.22;;;;;;;16.43;67.87;101088.39;5030855;57;1140949;-75
2023/05/22 01:02:56;;;;;;;8.83;6.90;;;;;;;16.49;68.12;101090.50;5079833;56;1140947;-77
2023/05/22 01:08:02;;;;;;;8.40;5.93;;;;;;;16.47;67.82;101089.80;5115561;56;1138932;-77
2023/05/22 01:13:33;;;;;;;14.07;6.00;;;;;;;16.34;67.67;101088.41;5115522;56;1138839;-75
2023/05/22 01:18:59;;;;;;;11.90;6.37;;;;;;;16.27;68.26;101085.45;5101836;56;1140847;-75
2023/05/22 01:24:24;;;;;;;14.07;6.20;;;;;;;16.18;68.25;101080.98;5149510;55;1141003;-73
2023/05/22 01:29:38;;;;;;;9.67;6.53;;;;;;;16.04;68.36;101085.41;5068263;56;1140913;-78
2023/05/22 01:34:49;;;;;;;11.37;6.20;;;;;;;15.95;68.88;101087.56;5031688;56;1138914;-76
2023/05/22 01:39:56;;;;;;;8.07;6.50;;;;;;;15.99;69.52;101086.31;5031233;56;1141082;-77
2023/05/22 01:45:01;;;;;;;8.60;6.10;;;;;;;16.05;69.86;101083.06;5050985;56;1138619;-75
2023/05/22 01:50:09;;;;;;;14.33;6.43;;;;;;;16.11;69.97;101090.03;5031293;56;1138755;-75
2023/05/22 01:55:21;;;;;;;11.40;6.40;;;;;;;16.10;69.62;101091.01;5030626;57;1140939;-76
2023/05/22 02:00:30;;;;;;;8.67;6.80;;;;;;;16.01;69.37;101086.53;5108614;56;1140919;-78
2023/05/22 02:05:39;;;;;;;12.23;5.77;;;;;;;15.94;69.60;101088.55;5128757;56;1138788;-74
2023/05/22 02:10:46;;;;;;;9.30;5.97;;;;;;;15.89;69.91;101089.48;5121958;56;1140983;-77
2023/05/22 02:15:52;;;;;;;8.53;6.63;;;;;;;15.73;69.67;101100.20;5115230;56;1138948;-75
2023/05/22 02:20:59;;;;;;;12.67;6.60;;;;;;;15.69;70.60;101096.60;5135217;56;1138637;-76
2023/05/22 02:26:05;;;;;;;7.87;6.30;;;;;;;15.74;71.01;101085.01;5115002;56;1140860;-75
2023/05/22 02:31:11;;;;;;;14.38;7.33;;;;;;;15.71;70.96;101086.64;5045821;56;1138807;-74
2023/05/22 02:36:18;;;;;;;12.30;6.67;;;;;;;15.57;70.81;101083.05;5050317;56;1141036;-77
2023/05/22 02:41:25;;;;;;;10.10;6.77;;;;;;;15.49;71.10;101076.52;5030658;56;1140884;-77
2023/05/22 02:46:30;;;;;;;7.70;6.33;;;;;;;15.45;71.37;101075.59;5030650;56;1140800;-75
2023/05/22 02:51:36;;;;;;;7.43;5.77;;;;;;;15.37;71.61;101072.30;5050555;57;1138687;-76
2023/05/22 02:56:42;;;;;;;13.93;6.93;;;;;;;15.37;72.20;101074.12;5080774;56;1138686;-77
2023/05/22 03:01:48;;;;;;;19.33;7.27;;;;;;;15.39;72.64;101073.49;5103201;56;1140851;-78
2023/05/22 03:06:54;;;;;;;19.03;7.13;;;;;;;15.44;72.77;101077.91;5089799;56;1141199;-78
2023/05/22 03:11:59;;;;;;;13.84;6.94;;;;;;;15.34;72.52;101075.23;5114979;56;1140892;-78
2023/05/22 03:17:05;;;;;;;18.60;7.75;;;;;;;15.30;73.02;101069.80;5113842;56;1141049;-74
2023/05/22 03:22:11;;;;;;;13.90;6.15;;;;;;;15.35;73.52;101065.41;5008933;57;1141005;-75
2023/05/22 03:27:17;;;;;;;12.93;6.90;;;;;;;15.29;73.29;101061.94;4968111;56;1140936;-74
2023/05/22 03:32:24;;;;;;;14.40;6.23;;;;;;;15.24;73.98;101059.70;5040378;56;1140947;-74
2023/05/22 03:37:30;;;;;;;11.83;6.50;;;;;;;15.08;74.16;101055.38;5027313;56;1141237;-75
2023/05/22 03:42:35;;;;;;;15.67;6.40;;;;;;;15.18;74.95;101064.72;5008017;57;1140857;-74
2023/05/22 03:47:41;;;;;;;22.47;6.87;;;;;;;15.18;75.20;101064.72;5007943;57;1140973;-73
2023/05/22 03:52:47;;;;;;;24.87;7.50;;;;;;;15.02;75.01;101067.41;4962617;57;1140912;-77
2023/05/22 03:57:53;;;;;;;28.73;8.60;;;;;;;14.95;75.59;101072.08;5016185;57;1141018;-74
2023/05/22 04:02:58;;;;;;;45.53;9.13;;;;;;;14.99;76.60;101070.81;5061102;57;1140818;-75
2023/05/22 04:08:05;;;;;;;40.50;7.53;;;;;;;15.09;77.34;101067.23;5061382;57;1140700;-75
2023/05/22 04:13:11;;;;;;;30.45;7.72;;;;;;;15.22;77.29;101074.14;5081188;57;1140875;-73
2023/05/22 04:18:18;;;;;;;31.73;8.40;;;;;;;15.30;77.17;101079.13;5061092;57;1141127;-76
2023/05/22 04:23:24;;;;;;;36.27;7.60;;;;;;;15.29;76.99;101072.11;5061064;57;1140794;-74
2023/05/22 04:28:30;;;;;;;20.53;6.90;;;;;;;15.38;78.24;101071.31;5055686;57;1140918;-72
2023/05/22 04:33:37;;;;;;;12.90;6.13;;;;;;;15.42;78.05;101056.75;5005810;57;1140916;-75
2023/05/22 04:38:43;;;;;;;13.00;7.00;;;;;;;15.41;77.97;101050.22;5006249;56;1140783;-76
2023/05/22 04:43:49;;;;;;;16.80;6.65;;;;;;;15.34;78.56;101053.06;5006120;57;1141128;-75
2023/05/22 04:49:00;;;;;;;21.37;7.00;;;;;;;15.26;78.53;101047.58;5077493;57;1141032;-74
2023/05/22 04:54:04;;;;;;;30.08;7.35;;;;;;;15.29;79.32;101045.95;5021967;56;1140953;-73
2023/05/22 04:59:14;;;;;;;14.65;7.33;;;;;;;15.37;79.50;101053.64;5045371;56;1140892;-75
2023/05/22 05:04:17;;;;;;;11.57;7.20;;;;;;;15.39;79.31;101059.67;5113354;56;1140885;-78
2023/05/22 05:09:24;;;;;;;21.17;6.73;;;;;;;15.43;79.55;101057.06;5085288;56;1140999;-75
2023/05/22 05:14:29;;;;;;;7.73;6.40;;;;;;;15.49;79.65;101065.86;5093856;56;1140859;-76
2023/05/22 05:19:35;;;;;;;19.37;7.50;;;;;;;15.55;79.83;101064.52;5113889;56;1138765;-77
2023/05/22 05:24:40;;;;;;;22.50;7.27;;;;;;;15.63;79.87;101059.31;5093882;56;1140791;-76
2023/05/22 05:29:47;;;;;;;14.90;6.57;;;;;;;15.70;80.25;101057.80;5115179;56;1140941;-72
2023/05/22 05:35:03;;;;;;;20.94;7.20;;;;;;;15.78;80.45;101063.27;5146805;56;1140813;-76
2023/05/22 05:40:22;;;;;;;9.67;7.40;;;;;;;15.82;80.15;101058.02;5125202;56;1140897;-73
2023/05/22 05:45:29;;;;;;;13.48;6.78;;;;;;;15.89;80.67;101064.95;5127595;56;1138825;-75
2023/05/22 05:50:35;;;;;;;7.43;6.37;;;;;;;15.97;81.41;101059.77;5136733;56;1140850;-75
2023/05/22 05:55:41;;;;;;;24.33;6.90;;;;;;;16.10;81.40;101057.66;5083290;56;1138830;-79
2023/05/22 06:00:47;;;;;;;10.73;6.60;;;;;;;16.23;82.26;101053.36;5127168;56;1141387;-76
2023/05/22 06:05:53;;;;;;;15.20;6.33;;;;;;;16.41;81.87;101053.47;5127307;56;1141159;-74
2023/05/22 06:11:02;;;;;;;10.63;7.03;;;;;;;16.54;82.18;101063.34;5147015;56;1140896;-76
2023/05/22 06:16:12;;;;;;;8.33;6.95;;;;;;;16.83;80.69;101058.79;5127211;56;1140822;-77
2023/05/22 06:21:23;;;;;;;10.85;7.00;;;;;;;17.11;78.61;101056.17;5127583;56;1138798;-74
2023/05/22 06:26:27;;;;;;;10.03;5.50;;;;;;;17.41;78.41;101051.01;5146985;56;1140864;-74
2023/05/22 06:31:36;;;;;;;6.13;5.30;;;;;;;17.74;76.74;101048.19;4931845;58;1140875;-77
2023/05/22 06:36:41;;;;;;;7.87;5.83;;;;;;;18.00;75.27;101054.97;4919280;58;1138835;-77
2023/05/22 06:41:47;;;;;;;7.20;4.57;;;;;;;18.29;75.46;101046.17;4919460;58;1138828;-74
2023/05/22 06:46:53;;;;;;;17.77;5.30;;;;;;;18.52;71.44;101054.52;4938376;58;1138816;-77
2023/05/22 06:52:00;;;;;;;6.93;4.50;;;;;;;18.74;70.48;101051.86;4887967;58;1149902;-74
2023/05/22 06:57:07;;;;;;;5.70;4.40;;;;;;;18.98;69.60;101050.63;4928258;57;1138760;-76
2023/05/22 07:02:14;;;;;;;11.50;4.00;;;;;;;19.16;66.84;101043.34;4993591;57;1138806;-73
2023/05/22 07:07:30;;;;;;;10.23;3.80;;;;;;;19.42;67.99;101042.41;4947146;56;1141277;-77
2023/05/22 07:12:36;;;;;;;4.96;3.88;;;;;;;19.64;67.10;101044.02;5044977;55;1140874;-72
2023/05/22 07:17:42;;;;;;;11.80;4.08;;;;;;;19.97;69.67;101044.06;5101975;56;1138841;-74
2023/05/22 07:22:48;;;;;;;5.20;3.80;;;;;;;20.31;69.77;101043.90;5143381;56;1140970;-77
2023/05/22 07:27:54;;;;;;;8.90;3.35;;;;;;;20.67;69.39;101042.50;5123453;56;1138957;-75
2023/05/22 07:33:00;;;;;;;13.13;3.80;;;;;;;20.93;66.89;101043.59;5116067;56;1138985;-78
2023/05/22 07:38:06;;;;;;;11.03;3.93;;;;;;;21.20;67.30;101043.71;5134180;56;1141021;-74
2023/05/22 07:43:14;;;;;;;3.95;3.08;;;;;;;21.38;64.22;101044.30;5114510;56;1140992;-79
2023/05/22 07:48:19;;;;;;;8.53;2.95;;;;;;;21.52;64.56;101029.75;5114487;56;1138939;-76
2023/05/22 07:53:25;;;;;;;5.28;2.75;;;;;;;21.77;63.98;101031.25;5076774;56;1139069;-75
2023/05/22 07:58:33;;;;;;;8.03;2.60;;;;;;;21.91;58.44;101033.67;5008497;57;1138773;-76
2023/05/22 08:03:39;;;;;;;7.02;2.36;;;;;;;21.98;58.41;101030.60;5030426;56;1138789;-73
2023/05/22 08:08:45;;;;;;;9.78;2.80;;;;;;;22.22;54.97;101033.11;5064375;56;1138933;-76
2023/05/22 08:13:50;;;;;;;3.40;2.17;;;;;;;22.38;51.18;101022.17;5080949;56;1138768;-75
2023/05/22 08:18:56;;;;;;;4.33;2.50;;;;;;;22.48;47.29;101022.41;5111094;56;1138846;-76
2023/05/22 08:24:02;;;;;;;8.93;2.60;;;;;;;22.55;48.60;101020.16;5115288;56;1139015;-79
2023/05/22 08:29:07;;;;;;;5.22;2.30;;;;;;;22.59;49.48;101015.23;5134863;56;1138891;-76
2023/05/22 08:34:13;;;;;;;4.70;2.72;;;;;;;22.73;46.28;101019.28;5108685;56;1138804;-78
2023/05/22 08:39:19;;;;;;;6.10;2.47;;;;;;;22.90;45.77;101017.78;5107249;56;1138887;-79
2023/05/22 08:44:24;;;;;;;2.20;2.02;;;;;;;23.06;48.37;101002.73;5127411;56;1138885;-81
2023/05/22 08:49:31;;;;;;;15.40;2.40;;;;;;;23.12;44.10;100998.76;5107202;56;1138748;-78
2023/05/22 08:54:41;;;;;;;2.98;1.80;;;;;;;23.24;42.50;101007.20;5108195;56;1140973;-79
2023/05/22 08:59:48;;;;;;;43.43;3.00;;;;;;;23.37;41.10;100998.44;5108326;56;1138916;-79
2023/05/22 09:04:53;;;;;;;1.52;1.42;;;;;;;23.52;41.72;100987.11;5128283;56;1140762;-82
2023/05/22 09:10:00;;;;;;;3.05;1.98;;;;;;;23.63;40.63;100983.05;5048592;56;1138691;-79
2023/05/22 09:15:12;;;;;;;3.98;1.87;;;;;;;23.69;37.94;100983.09;5103966;56;1139019;-81
2023/05/22 09:20:18;;;;;;;11.70;1.87;;;;;;;23.72;38.83;100977.83;5127707;56;1138801;-81
2023/05/22 09:25:25;;;;;;;5.92;2.20;;;;;;;23.91;35.96;100977.70;5107116;56;1140968;-78
2023/05/22 09:30:35;;;;;;;2.87;2.17;;;;;;;23.84;38.05;100974.41;5107131;56;1139093;-74
2023/05/22 09:35:44;;;;;;;2.60;2.35;;;;;;;23.98;38.59;100975.90;5111693;56;1138817;-79
2023/05/22 09:40:58;;;;;;;6.33;2.15;;;;;;;24.15;38.62;100965.93;5115062;55;1138736;-77
2023/05/22 09:46:03;;;;;;;8.95;2.40;;;;;;;24.50;39.23;100950.60;5089894;56;1138730;-78
2023/05/22 09:51:10;;;;;;;2.25;2.02;;;;;;;24.66;36.04;100954.84;5096534;56;1138772;-77
2023/05/22 09:56:17;;;;;;;6.65;1.87;;;;;;;24.72;36.16;100957.28;5135360;56;1138847;-75
2023/05/22 10:01:24;;;;;;;13.32;2.50;;;;;;;24.73;34.12;100955.73;5114800;56;1138909;-77
2023/05/22 10:06:33;;;;;;;8.60;2.40;;;;;;;24.73;34.50;100957.09;5114690;56;1141229;-77
2023/05/22 10:11:39;;;;;;;7.03;2.35;;;;;;;24.89;35.13;100952.69;5055389;56;1138832;-75
2023/05/22 10:16:45;;;;;;;8.25;2.37;;;;;;;24.98;34.20;100937.64;5007861;57;1139017;-77
2023/05/22 10:21:51;;;;;;;3.63;2.43;;;;;;;25.12;35.48;100928.01;5007534;57;1138958;-78
2023/05/22 10:26:57;;;;;;;7.42;2.17;;;;;;;25.31;33.83;100933.16;5027184;57;1138807;-79
2023/05/22 10:32:32;;;;;;;4.12;2.47;;;;;;;25.24;33.34;100924.17;5081102;56;1138773;-76
2023/05/22 10:37:52;;;;;;;6.10;2.65;;;;;;;25.01;34.03;100923.19;5055186;55;1138926;-78
2023/05/22 10:43:00;;;;;;;2.47;2.27;;;;;;;25.16;35.79;100918.97;5128590;56;1138825;-78
2023/05/22 10:48:11;;;;;;;6.47;2.52;;;;;;;25.25;35.42;100912.31;5109525;56;1138690;-78
2023/05/22 10:53:26;;;;;;;5.33;2.27;;;;;;;25.33;33.88;100896.41;5023621;57;1138856;-76
2023/05/22 10:58:36;;;;;;;3.70;2.33;;;;;;;25.41;34.05;100893.48;5023315;57;1138675;-76
2023/05/22 11:03:58;;;;;;;7.10;2.60;;;;;;;25.53;34.91;100875.05;5024338;57;1138758;-76
2023/05/22 11:09:28;;;;;;;6.42;2.92;;;;;;;25.64;34.74;100876.88;5034609;57;1138765;-79
2023/05/22 11:14:33;;;;;;;2.12;1.95;;;;;;;25.83;33.36;100880.91;4809829;58;1139280;-76
2023/05/22 11:19:41;;;;;;;4.08;2.33;;;;;;;26.03;34.19;100878.70;4923336;57;1138891;-78
2023/05/22 11:24:47;;;;;;;2.90;2.10;;;;;;;25.82;31.41;100866.20;4983679;57;1138835;-77
2023/05/22 11:29:54;;;;;;;6.10;2.30;;;;;;;25.66;31.85;100871.56;5024807;57;1138704;-75
2023/05/22 11:35:00;;;;;;;3.60;2.30;;;;;;;25.80;33.18;100866.45;5021007;57;1138890;-75
2023/05/22 11:40:07;;;;;;;2.45;2.33;;;;;;;25.98;33.51;100860.87;5008239;57;1138841;-75
2023/05/22 11:45:13;;;;;;;8.90;2.27;;;;;;;26.02;32.25;100858.89;5027666;57;1138933;-79
2023/05/22 11:50:19;;;;;;;4.80;2.87;;;;;;;26.22;32.48;100856.14;4925997;58;1138836;-81
2023/05/22 11:55:25;;;;;;;5.65;2.10;;;;;;;26.25;32.23;100852.48;4915757;58;1139173;-74
2023/05/22 12:00:32;;;;;;;2.35;2.25;;;;;;;26.46;34.37;100848.66;4938434;57;1138689;-78
2023/05/22 12:05:38;;;;;;;5.97;2.72;;;;;;;26.60;31.81;100851.63;4935054;57;1139178;-83
2023/05/22 12:10:54;;;;;;;9.10;2.00;;;;;;;26.45;32.11;100844.28;4941392;58;1138668;-78
2023/05/22 12:16:01;;;;;;;1.80;1.70;;;;;;;26.46;32.05;100835.10;4905577;59;1138930;-77
2023/05/22 12:21:10;;;;;;;3.00;2.30;;;;;;;26.52;32.78;100832.89;4905974;58;1139017;-76
2023/05/22 12:26:16;;;;;;;2.77;2.10;;;;;;;26.42;30.59;100830.34;4911541;58;1138957;-78
2023/05/22 12:31:25;;;;;;;4.20;2.03;;;;;;;26.41;31.74;100821.38;4997867;57;1138994;-73
2023/05/22 12:36:39;;;;;;;3.40;2.33;;;;;;;26.49;31.22;100822.47;5017121;58;1138685;-77
2023/05/22 12:41:48;;;;;;;6.28;3.25;;;;;;;26.44;32.40;100820.92;5005443;57;1138676;-75
2023/05/22 12:46:54;;;;;;;6.57;2.33;;;;;;;26.61;33.89;100807.17;5046559;56;1138795;-75
2023/05/22 12:51:59;;;;;;;2.17;1.75;;;;;;;26.71;32.92;100806.72;5039644;56;1138708;-74
2023/05/22 12:57:06;;;;;;;5.04;1.98;;;;;;;26.39;31.35;100804.48;5037385;56;1138952;-79
2023/05/22 13:02:12;;;;;;;2.47;2.10;;;;;;;26.22;31.89;100797.84;5005098;56;1138853;-77
2023/05/22 13:07:17;;;;;;;5.50;2.33;;;;;;;26.36;31.27;100794.58;5053591;56;1138688;-76
2023/05/22 13:12:23;;;;;;;3.87;1.90;;;;;;;26.53;31.60;100783.55;5026727;56;1138756;-78
2023/05/22 13:17:29;;;;;;;1.90;1.80;;;;;;;26.66;31.04;100787.53;5009068;57;1138838;-76
2023/05/22 13:22:34;;;;;;;4.08;1.75;;;;;;;26.73;31.07;100784.27;5028913;57;1138834;-75
2023/05/22 13:27:40;;;;;;;2.10;2.00;;;;;;;26.83;28.84;100779.70;5082031;56;1138759;-76
2023/05/22 13:32:46;;;;;;;10.10;2.50;;;;;;;26.85;28.27;100778.97;5020310;56;1138781;-75
2023/05/22 13:37:51;;;;;;;4.50;2.27;;;;;;;26.86;30.78;100765.18;5067804;56;1140977;-76
2023/05/22 13:42:57;;;;;;;4.15;1.98;;;;;;;26.89;31.52;100763.36;5123869;56;1138685;-75
2023/05/22 13:48:02;;;;;;;6.03;2.42;;;;;;;27.03;30.24;100757.89;5104049;56;1138821;-78
2023/05/22 13:53:21;;;;;;;3.17;1.90;;;;;;;27.00;30.20;100763.23;5104076;56;1138593;-75
2023/05/22 13:58:27;;;;;;;4.53;2.30;;;;;;;27.04;30.68;100754.92;5120328;56;1138997;-75
2023/05/22 14:03:33;;;;;;;2.75;2.25;;;;;;;27.01;29.30;100755.39;5017735;56;1139038;-73
2023/05/22 14:08:38;;;;;;;12.98;2.17;;;;;;;26.97;30.46;100748.73;5025497;56;1138917;-76
2023/05/22 14:13:44;;;;;;;3.72;2.27;;;;;;;26.86;29.60;100752.97;5103375;56;1140987;-74
2023/05/22 14:18:49;;;;;;;1.92;1.82;;;;;;;26.74;29.11;100749.80;5123566;56;1138738;-74
2023/05/22 14:23:55;;;;;;;2.45;1.80;;;;;;;26.63;29.45;100748.63;5103343;56;1138659;-76
2023/05/22 14:29:01;;;;;;;7.42;1.77;;;;;;;26.70;29.58;100748.59;5103657;56;1139038;-76
2023/05/22 14:34:07;;;;;;;2.88;2.38;;;;;;;26.70;29.60;100739.92;5140378;56;1138982;-77
2023/05/22 14:39:13;;;;;;;6.85;2.05;;;;;;;26.75;29.32;100740.08;5095736;56;1138817;-78
2023/05/22 14:44:21;;;;;;;7.97;2.43;;;;;;;26.61;29.50;100743.93;5104038;56;1138814;-78
2023/05/22 14:49:26;;;;;;;6.70;3.80;;;;;;;26.52;29.91;100731.69;5123931;56;1138743;-77
2023/05/22 14:54:32;;;;;;;4.12;2.10;;;;;;;26.49;28.81;100734.83;5103587;56;1138704;-75
2023/05/22 14:59:38;;;;;;;8.33;2.60;;;;;;;26.38;28.49;100724.68;5103804;56;1138904;-76
2023/05/22 15:04:45;;;;;;;9.53;6.25;;;;;;;26.38;29.83;100722.80;5103893;56;1138922;-76
2023/05/22 15:09:50;;;;;;;5.42;2.08;;;;;;;26.43;29.07;100724.87;5123579;56;1138770;-76
2023/05/22 15:14:56;;;;;;;4.53;2.10;;;;;;;26.37;27.65;100713.00;5103388;56;1138946;-77
2023/05/22 15:20:03;;;;;;;2.33;2.13;;;;;;;26.37;28.61;100721.14;5096157;56;1138782;-77
2023/05/22 15:25:13;;;;;;;3.42;2.08;;;;;;;26.44;28.42;100715.13;5040277;56;1138704;-77
2023/05/22 15:30:19;;;;;;;4.08;2.52;;;;;;;26.51;29.31;100717.30;5074049;56;1138762;-73
2023/05/22 15:35:24;;;;;;;2.53;2.20;;;;;;;26.63;29.28;100703.85;5103353;56;1138829;-78
2023/05/22 15:40:30;;;;;;;2.12;1.98;;;;;;;26.59;29.19;100698.02;5123165;56;1138773;-76
2023/05/22 15:45:39;;;;;;;6.03;2.45;;;;;;;26.48;29.59;100689.77;5076246;56;1138933;-78
2023/05/22 15:50:44;;;;;;;5.97;2.50;;;;;;;26.45;30.22;100684.77;5011251;56;1138816;-78
2023/05/22 15:55:51;;;;;;;5.12;2.67;;;;;;;26.35;29.59;100681.72;5011179;56;1138962;-75
2023/05/22 16:00:57;;;;;;;12.35;4.60;;;;;;;26.22;30.00;100675.30;5030742;56;1138943;-76
2023/05/22 16:06:02;;;;;;;16.48;8.70;;;;;;;26.06;30.45;100674.97;5009971;56;1140959;-78
2023/05/22 16:11:11;;;;;;;5.85;3.60;;;;;;;26.01;30.89;100667.48;5010336;57;1140966;-77
2023/05/22 16:16:17;;;;;;;10.65;7.05;;;;;;;25.96;31.23;100664.61;5030474;57;1138960;-74
2023/05/22 16:21:22;;;;;;;5.97;5.45;;;;;;;26.01;31.20;100660.70;5010534;57;1141079;-76
2023/05/22 16:26:28;;;;;;;2.30;2.10;;;;;;;26.07;31.37;100659.02;4966881;57;1139356;-76
2023/05/22 16:31:34;;;;;;;4.08;2.90;;;;;;;26.02;31.18;100661.02;5023157;57;1138763;-78
2023/05/22 16:36:40;;;;;;;11.35;2.72;;;;;;;25.89;30.88;100661.08;5011624;57;1138868;-76
2023/05/22 16:41:45;;;;;;;7.12;2.70;;;;;;;25.83;31.33;100658.70;5011214;57;1140820;-77
2023/05/22 16:46:51;;;;;;;3.17;2.60;;;;;;;25.80;31.81;100655.09;5022872;56;1138915;-78
2023/05/22 16:51:57;;;;;;;2.40;2.20;;;;;;;25.78;31.42;100649.05;5115143;56;1138763;-75
2023/05/22 16:57:05;;;;;;;3.72;2.40;;;;;;;25.70;31.46;100659.28;5095305;56;1138985;-78
2023/05/22 17:02:10;;;;;;;4.85;3.62;;;;;;;25.58;31.26;100659.92;5095528;56;1138995;-74
2023/05/22 17:07:16;;;;;;;6.78;2.67;;;;;;;25.40;31.45;100655.70;5115311;56;1138821;-76
2023/05/22 17:12:22;;;;;;;4.12;3.08;;;;;;;25.31;32.44;100656.98;5094971;56;1138758;-77
2023/05/22 17:17:27;;;;;;;3.52;2.40;;;;;;;25.20;32.37;100649.52;5095170;56;1138725;-77
2023/05/22 17:22:34;;;;;;;2.55;2.27;;;;;;;25.11;32.99;100650.77;5114546;56;1138828;-72
2023/05/22 17:27:40;;;;;;;8.55;2.58;;;;;;;25.05;33.51;100649.75;5039489;56;1138781;-75
2023/05/22 17:32:46;;;;;;;9.90;2.62;;;;;;;24.93;33.88;100643.78;5095163;56;1138921;-74
2023/05/22 17:37:51;;;;;;;10.37;2.23;;;;;;;24.86;34.34;100639.22;5095017;56;1138853;-75
2023/05/22 17:42:59;;;;;;;9.10;2.95;;;;;;;24.79;34.74;100643.80;5114879;56;1140852;-74
2023/05/22 17:48:05;;;;;;;12.37;5.15;;;;;;;24.76;35.06;100642.84;5094972;56;1138776;-74
2023/05/22 17:53:12;;;;;;;5.64;3.06;;;;;;;24.68;35.48;100643.07;5105313;56;1140826;-77
2023/05/22 17:58:18;;;;;;;7.42;2.87;;;;;;;24.60;35.73;100640.55;5098946;56;1138979;-74
2023/05/22 18:03:25;;;;;;;6.60;2.42;;;;;;;24.50;36.20;100639.63;5094072;56;1138885;-72
2023/05/22 18:08:30;;;;;;;6.43;2.77;;;;;;;24.34;36.66;100638.67;5076720;56;1138691;-74
2023/05/22 18:13:36;;;;;;;4.62;2.65;;;;;;;24.24;37.06;100637.41;5113824;56;1138753;-75
2023/05/22 18:18:41;;;;;;;6.67;3.90;;;;;;;24.13;37.14;100642.88;5078512;56;1138764;-75
2023/05/22 18:23:47;;;;;;;7.24;3.80;;;;;;;24.01;37.60;100643.97;5076740;56;1138875;-76
2023/05/22 18:28:53;;;;;;;7.47;5.00;;;;;;;23.89;38.06;100644.25;5040769;56;1138938;-76
2023/05/22 18:33:58;;;;;;;9.18;3.87;;;;;;;23.78;38.55;100643.48;5113698;56;1138908;-77
2023/05/22 18:39:06;;;;;;;7.92;3.67;;;;;;;23.71;38.85;100640.75;5093787;56;1138990;-75
2023/05/22 18:44:12;;;;;;;10.54;4.30;;;;;;;23.65;39.50;100642.09;5086539;56;1138964;-75
2023/05/22 18:49:18;;;;;;;12.65;4.22;;;;;;;23.57;40.41;100644.94;5129585;55;1140884;-77
2023/05/22 18:54:24;;;;;;;10.13;6.00;;;;;;;23.45;41.04;100641.44;5093506;56;1140853;-76
2023/05/22 18:59:30;;;;;;;15.50;5.53;;;;;;;23.37;41.30;100633.52;5091875;56;1140798;-74
2023/05/22 19:04:35;;;;;;;11.38;4.37;;;;;;;23.40;41.92;100653.85;5113268;56;1141039;-76
2023/05/22 19:09:41;;;;;;;18.42;5.60;;;;;;;23.27;43.19;100654.61;5093363;56;1140865;-76
2023/05/22 19:14:47;;;;;;;9.15;5.35;;;;;;;23.11;44.83;100661.16;5092935;56;1140853;-75
2023/05/22 19:19:52;;;;;;;27.02;6.22;;;;;;;22.93;44.49;100663.50;5091284;56;1138854;-73
2023/05/22 19:24:58;;;;;;;14.98;5.42;;;;;;;22.80;45.21;100656.66;5108922;56;1140891;-74
2023/05/22 19:30:04;;;;;;;18.45;7.08;;;;;;;22.64;45.17;100656.39;5093220;56;1141035;-75
2023/05/22 19:35:10;;;;;;;25.15;7.40;;;;;;;22.51;45.26;100657.63;5093125;56;1140807;-76
2023/05/22 19:40:16;;;;;;;15.05;7.17;;;;;;;22.42;46.05;100653.41;5113408;56;1140841;-73
2023/05/22 19:45:24;;;;;;;15.80;6.47;;;;;;;22.35;47.11;100649.80;5035944;56;1141128;-75
2023/05/22 19:50:29;;;;;;;11.30;6.20;;;;;;;22.19;46.86;100647.34;5057180;56;1141183;-74
2023/05/22 19:55:35;;;;;;;14.68;6.25;;;;;;;22.05;47.17;100639.64;5089067;56;1140861;-77
2023/05/22 20:00:41;;;;;;;8.45;5.37;;;;;;;21.91;47.58;100631.89;5055976;56;1141212;-74
2023/05/22 20:05:47;;;;;;;11.43;7.28;;;;;;;21.78;47.49;100639.82;5063942;56;1138693;-76
2023/05/22 20:10:53;;;;;;;10.23;7.25;;;;;;;21.74;47.87;100643.91;5020559;56;1141079;-76
2023/05/22 20:16:02;;;;;;;10.05;5.22;;;;;;;21.67;47.95;100643.01;5003642;56;1140964;-78
2023/05/22 20:21:06;;;;;;;8.10;5.30;;;;;;;21.57;48.36;100642.44;5000087;56;1141046;-79
2023/05/22 20:26:11;;;;;;;14.68;5.28;;;;;;;21.47;48.44;100636.52;5024894;56;1138793;-75
2023/05/22 20:31:17;;;;;;;10.55;5.47;;;;;;;21.30;48.78;100638.56;5006098;57;1140862;-76
2023/05/22 20:36:23;;;;;;;10.00;7.20;;;;;;;21.13;49.31;100642.42;4927520;58;1141073;-76
2023/05/22 20:41:29;;;;;;;16.45;6.22;;;;;;;20.99;49.64;100635.50;4922641;58;1140877;-75
2023/05/22 20:46:34;;;;;;;16.93;7.58;;;;;;;20.88;50.27;100634.61;4966517;57;1140896;-76
2023/05/22 20:51:40;;;;;;;22.10;10.85;;;;;;;20.88;50.55;100634.61;4978501;56;1141028;-77
2023/05/22 20:56:45;;;;;;;34.18;19.42;;;;;;;20.83;51.21;100637.00;5032729;56;1142963;-77
2023/05/22 21:01:51;;;;;;;28.83;18.23;;;;;;;20.76;51.72;100638.77;5071186;56;1143113;-76
2023/05/22 21:06:57;;;;;;;24.92;13.18;;;;;;;20.64;52.09;100638.84;5089365;56;1142901;-76
2023/05/22 21:12:03;;;;;;;28.07;14.23;;;;;;;20.47;52.70;100636.00;5072550;56;1143045;-77
2023/05/22 21:17:08;;;;;;;14.60;10.30;;;;;;;20.25;53.34;100645.69;5087109;56;1142982;-77
2023/05/22 21:22:15;;;;;;;9.38;4.73;;;;;;;20.05;53.98;100641.78;5102440;56;1142894;-77
2023/05/22 21:27:21;;;;;;;15.03;5.27;;;;;;;19.86;54.85;100642.55;5078081;56;1138914;-76
2023/05/22 21:32:26;;;;;;;4.90;4.33;;;;;;;19.76;55.85;100638.42;5093991;56;1140888;-76
2023/05/22 21:37:32;;;;;;;7.75;4.50;;;;;;;19.67;56.58;100640.33;5117461;56;1138798;-77
2023/05/22 21:42:39;;;;;;;9.23;5.05;;;;;;;19.60;57.23;100631.28;5128570;56;1138917;-78
2023/05/22 21:47:44;;;;;;;38.92;6.95;;;;;;;19.57;57.76;100629.78;5128714;56;1138808;-77
2023/05/22 21:52:50;;;;;;;23.30;6.65;;;;;;;19.52;58.35;100633.52;5148601;56;1140848;-77
2023/05/22 21:57:56;;;;;;;12.65;6.78;;;;;;;19.40;58.84;100637.53;5128300;56;1140989;-78
2023/05/22 22:03:02;;;;;;;15.50;5.80;;;;;;;19.27;59.03;100630.54;5128527;56;1140960;-77
2023/05/22 22:08:07;;;;;;;7.17;4.80;;;;;;;19.12;59.45;100638.45;5124578;56;1140798;-76
2023/05/22 22:13:13;;;;;;;8.78;4.35;;;;;;;19.00;59.82;100638.49;5010207;57;1139110;-76
2023/05/22 22:18:19;;;;;;;12.30;5.75;;;;;;;18.79;60.11;100635.53;5010138;56;1138752;-76
2023/05/22 22:23:24;;;;;;;10.32;5.00;;;;;;;18.63;60.80;100635.53;5029836;57;1141018;-75
2023/05/22 22:28:30;;;;;;;14.90;4.60;;;;;;;18.47;61.22;100625.62;5015687;56;1140879;-76
2023/05/22 22:33:36;;;;;;;8.85;4.67;;;;;;;18.25;62.05;100619.92;5006994;57;1141160;-76
2023/05/22 22:38:41;;;;;;;5.47;4.85;;;;;;;18.12;63.20;100618.73;5059465;57;1138915;-77
2023/05/22 22:43:47;;;;;;;21.68;5.15;;;;;;;18.03;63.72;100613.02;5066127;56;1138722;-77
2023/05/22 22:48:53;;;;;;;7.53;4.67;;;;;;;17.93;64.38;100609.16;5098679;56;1140780;-79
2023/05/22 22:53:58;;;;;;;12.47;5.00;;;;;;;17.87;64.98;100603.14;5113473;56;1138770;-76
2023/05/22 22:59:04;;;;;;;7.97;4.87;;;;;;;17.85;65.14;100607.32;5094573;56;1140928;-76
2023/05/22 23:04:11;;;;;;;8.85;5.22;;;;;;;17.86;65.10;100604.98;5106975;56;1138875;-76
2023/05/22 23:09:17;;;;;;;11.93;5.30;;;;;;;17.86;65.27;100601.47;5129111;56;1138728;-78